createdAt,value
2023-01-23T00:01:35.005Z,14.63
2023-01-23T00:04:05.427Z,18.20
2023-01-23T00:06:33.225Z,15.40
2023-01-23T00:09:01.474Z,14.20
2023-01-23T00:11:30.535Z,16.63
2023-01-23T00:14:00.174Z,14.73
2023-01-23T00:16:31.161Z,15.80
2023-01-23T00:18:59.337Z,14.47
2023-01-23T00:21:29.040Z,14.50
2023-01-23T00:23:58.763Z,14.33
2023-01-23T00:26:29.541Z,13.97
2023-01-23T00:28:57.097Z,14.43
2023-01-23T00:31:43.039Z,13.80
2023-01-23T00:34:14.612Z,14.33
2023-01-23T00:36:44.476Z,13.90
2023-01-23T00:39:20.406Z,11.97
2023-01-23T00:41:49.360Z,15.00
2023-01-23T00:44:17.385Z,13.50
2023-01-23T00:46:45.265Z,13.93
2023-01-23T00:49:12.915Z,14.70
2023-01-23T00:51:40.618Z,13.80
2023-01-23T00:54:08.146Z,14.20
2023-01-23T00:56:35.678Z,13.57
2023-01-23T00:59:03.190Z,15.47
2023-01-23T01:01:32.573Z,14.87
2023-01-23T01:04:00.606Z,14.63
2023-01-23T01:06:30.196Z,14.97
2023-01-23T01:08:59.622Z,14.90
2023-01-23T01:11:27.612Z,15.00
2023-01-23T01:13:55.247Z,14.43
2023-01-23T01:16:24.298Z,13.80
2023-01-23T01:18:52.034Z,15.87
2023-01-23T01:21:20.910Z,14.70
2023-01-23T01:23:48.408Z,14.87
2023-01-23T01:26:15.931Z,21.63
2023-01-23T01:28:43.492Z,24.70
2023-01-23T01:31:16.248Z,13.53
2023-01-23T01:33:44.654Z,14.63
2023-01-23T01:36:19.068Z,17.33
2023-01-23T01:38:48.403Z,13.93
2023-01-23T01:41:17.132Z,12.83
2023-01-23T01:43:45.705Z,12.30
2023-01-23T01:46:28.784Z,13.43
2023-01-23T01:49:10.468Z,15.80
2023-01-23T01:52:05.172Z,12.73
2023-01-23T01:54:38.931Z,14.10
2023-01-23T01:57:21.710Z,12.20
2023-01-23T02:00:10.420Z,13.63
2023-01-23T02:03:01.337Z,15.43
2023-01-23T02:05:37.970Z,14.90
2023-01-23T02:08:30.127Z,12.73
2023-01-23T02:11:00.663Z,13.27
2023-01-23T02:13:39.218Z,13.23
2023-01-23T02:16:11.407Z,13.33
2023-01-23T02:18:44.570Z,11.10
2023-01-23T02:21:13.922Z,10.70
2023-01-23T02:23:53.070Z,12.00
2023-01-23T02:26:36.504Z,12.33
2023-01-23T02:29:06.022Z,12.50
2023-01-23T02:31:44.214Z,11.00
2023-01-23T02:34:14.553Z,12.23
2023-01-23T02:36:48.044Z,10.40
2023-01-23T02:39:20.479Z,13.67
2023-01-23T02:41:56.042Z,12.97
2023-01-23T02:44:32.854Z,11.40
2023-01-23T02:47:12.400Z,11.53
2023-01-23T02:49:42.621Z,13.17
2023-01-23T02:52:10.807Z,10.37
2023-01-23T02:54:40.319Z,10.93
2023-01-23T02:57:09.109Z,11.80
2023-01-23T02:59:55.665Z,12.10
2023-01-23T03:02:24.605Z,12.37
2023-01-23T03:04:52.300Z,12.20
2023-01-23T03:07:20.864Z,13.60
2023-01-23T03:09:48.850Z,11.87
2023-01-23T03:12:16.666Z,11.17
2023-01-23T03:14:44.388Z,9.97
2023-01-23T03:17:14.979Z,12.50
2023-01-23T03:19:43.193Z,12.37
2023-01-23T03:22:11.036Z,11.60
2023-01-23T03:24:40.208Z,11.80
2023-01-23T03:27:08.283Z,13.23
2023-01-23T03:30:02.538Z,11.27
2023-01-23T03:32:30.858Z,11.40
2023-01-23T03:34:59.418Z,12.37
2023-01-23T03:37:27.251Z,13.90
2023-01-23T03:40:14.531Z,14.33
2023-01-23T03:42:42.401Z,13.57
2023-01-23T03:45:13.217Z,10.70
2023-01-23T03:47:42.382Z,11.87
2023-01-23T03:50:10.602Z,12.87
2023-01-23T03:52:40.234Z,13.17
2023-01-23T03:55:09.149Z,14.73
2023-01-23T03:57:37.836Z,13.33
2023-01-23T04:00:18.111Z,13.87
2023-01-23T04:02:53.715Z,14.17
2023-01-23T04:05:21.638Z,14.20
2023-01-23T04:07:49.962Z,17.00
2023-01-23T04:10:18.249Z,14.83
2023-01-23T04:12:51.043Z,13.23
2023-01-23T04:15:19.375Z,14.37
2023-01-23T04:17:47.215Z,14.17
2023-01-23T04:20:15.413Z,19.30
2023-01-23T04:22:44.948Z,14.60
2023-01-23T04:25:12.653Z,12.87
2023-01-23T04:27:40.616Z,14.83
2023-01-23T04:30:11.105Z,14.90
2023-01-23T04:32:38.829Z,15.43
2023-01-23T04:35:07.761Z,15.20
2023-01-23T04:37:38.948Z,13.77
2023-01-23T04:40:10.270Z,16.23
2023-01-23T04:42:50.119Z,14.83
2023-01-23T04:48:34.045Z,13.47
2023-01-23T04:51:01.975Z,14.43
2023-01-23T04:53:29.721Z,14.97
2023-01-23T04:56:01.411Z,13.13
2023-01-23T04:58:29.979Z,19.97
2023-01-23T05:01:06.970Z,16.50
2023-01-23T05:03:37.312Z,16.40
2023-01-23T05:06:05.620Z,14.20
2023-01-23T05:08:33.824Z,14.50
2023-01-23T05:11:17.982Z,18.58
2023-01-23T05:13:46.064Z,15.73
2023-01-23T05:16:14.904Z,15.40
2023-01-23T05:19:01.190Z,15.23
2023-01-23T05:21:32.674Z,16.43
2023-01-23T05:24:00.475Z,13.93
2023-01-23T05:26:28.612Z,15.53
2023-01-23T05:28:57.360Z,15.93
2023-01-23T05:31:26.843Z,16.83
2023-01-23T05:34:14.521Z,17.43
2023-01-23T05:36:42.867Z,17.97
2023-01-23T05:39:10.683Z,15.60
2023-01-23T05:41:38.411Z,12.47
2023-01-23T05:44:31.460Z,16.13
2023-01-23T05:47:06.492Z,19.50
2023-01-23T05:49:34.815Z,20.03
2023-01-23T05:52:03.022Z,14.90
2023-01-23T05:54:33.140Z,22.80
2023-01-23T05:57:01.341Z,19.10
2023-01-23T05:59:47.545Z,20.43
2023-01-23T06:02:38.944Z,16.33
2023-01-23T06:05:26.317Z,21.90
2023-01-23T06:08:02.074Z,22.73
2023-01-23T06:10:30.756Z,22.67
2023-01-23T06:12:58.476Z,23.17
2023-01-23T06:15:26.199Z,26.70
2023-01-23T06:17:56.144Z,30.63
2023-01-23T06:20:25.724Z,21.40
2023-01-23T06:22:53.445Z,27.40
2023-01-23T06:25:22.132Z,25.70
2023-01-23T06:27:50.454Z,28.27
2023-01-23T06:30:19.107Z,27.07
2023-01-23T06:32:48.544Z,25.17
2023-01-23T06:35:20.972Z,25.43
2023-01-23T06:37:49.023Z,25.47
2023-01-23T06:40:19.929Z,25.70
2023-01-23T06:42:58.871Z,23.00
2023-01-23T06:45:27.436Z,24.50
2023-01-23T06:47:55.153Z,24.67
2023-01-23T06:50:23.840Z,22.87
2023-01-23T06:52:51.564Z,20.13
2023-01-23T06:55:21.213Z,24.10
2023-01-23T06:57:49.298Z,23.07
2023-01-23T07:00:18.970Z,23.57
2023-01-23T07:02:47.168Z,21.90
2023-01-23T07:05:15.210Z,21.40
2023-01-23T07:07:46.650Z,19.73
2023-01-23T07:10:14.619Z,15.37
2023-01-23T07:12:42.454Z,20.17
2023-01-23T07:15:11.621Z,21.43
2023-01-23T07:17:41.498Z,16.80
2023-01-23T07:20:10.665Z,18.33
2023-01-23T07:25:10.917Z,18.40
2023-01-23T07:27:38.748Z,22.50
2023-01-23T07:30:07.433Z,19.03
2023-01-23T07:32:35.278Z,19.00
2023-01-23T07:35:03.243Z,17.50
2023-01-23T07:37:30.959Z,18.87
2023-01-23T07:39:58.816Z,20.93
2023-01-23T07:42:26.649Z,18.87
2023-01-23T07:44:54.364Z,17.17
2023-01-23T07:47:22.210Z,18.63
2023-01-23T07:49:49.929Z,20.43
2023-01-23T07:52:17.653Z,19.53
2023-01-23T07:54:45.375Z,19.30
2023-01-23T07:57:13.220Z,21.40
2023-01-23T07:59:41.077Z,19.60
2023-01-23T08:02:11.073Z,17.77
2023-01-23T08:04:38.914Z,18.83
2023-01-23T08:07:06.749Z,18.43
2023-01-23T08:09:34.497Z,19.17
2023-01-23T08:12:02.310Z,22.07
2023-01-23T08:14:30.151Z,25.50
2023-01-23T08:16:58.131Z,20.07
2023-01-23T08:19:27.277Z,20.10
2023-01-23T08:21:55.122Z,18.83
2023-01-23T08:24:22.840Z,18.43
2023-01-23T08:26:50.570Z,23.47
2023-01-23T08:29:18.404Z,20.37
2023-01-23T08:31:46.207Z,27.33
2023-01-23T08:34:13.852Z,30.70
2023-01-23T08:36:42.052Z,25.73
2023-01-23T08:39:09.775Z,22.37
2023-01-23T08:41:37.511Z,22.73
2023-01-23T08:44:05.470Z,23.47
2023-01-23T08:46:33.185Z,22.90
2023-01-23T08:49:00.906Z,25.93
2023-01-23T08:51:28.771Z,19.27
2023-01-23T08:53:56.593Z,21.67
2023-01-23T08:56:24.672Z,20.00
2023-01-23T08:58:52.753Z,17.80
2023-01-23T09:01:23.995Z,18.93
2023-01-23T09:04:05.360Z,19.00
2023-01-23T09:06:33.098Z,21.37
2023-01-23T09:09:00.813Z,21.00
2023-01-23T09:11:28.528Z,15.17
2023-01-23T09:13:56.384Z,19.87
2023-01-23T09:16:24.280Z,19.30
2023-01-23T09:18:51.954Z,20.60
2023-01-23T09:21:19.677Z,20.33
2023-01-23T09:23:47.377Z,18.90
2023-01-23T09:26:16.162Z,18.37
2023-01-23T09:28:44.509Z,20.30
2023-01-23T09:31:14.075Z,22.07
2023-01-23T09:33:42.467Z,22.10
2023-01-23T09:36:10.685Z,22.33
2023-01-23T09:38:38.640Z,19.83
2023-01-23T09:41:28.555Z,20.10
2023-01-23T09:44:07.800Z,19.00
2023-01-23T09:46:57.851Z,20.17
2023-01-23T09:50:00.388Z,20.50
2023-01-23T09:52:45.962Z,16.73
2023-01-23T09:55:33.370Z,36.10
2023-01-23T09:58:03.498Z,40.53
2023-01-23T10:00:33.857Z,53.37
2023-01-23T10:03:11.415Z,34.50
2023-01-23T10:06:00.988Z,31.83
2023-01-23T10:08:47.061Z,23.23
2023-01-23T10:11:27.021Z,21.87
2023-01-23T10:14:29.905Z,30.80
2023-01-23T10:17:10.490Z,28.00
2023-01-23T10:20:33.033Z,22.63
2023-01-23T10:23:31.008Z,30.37
2023-01-23T10:26:02.915Z,29.03
2023-01-23T10:28:39.455Z,32.40
2023-01-23T10:31:44.290Z,30.67
2023-01-23T10:34:25.488Z,36.75
2023-01-23T10:37:37.965Z,35.23
2023-01-23T10:40:37.856Z,25.10
2023-01-23T10:43:19.386Z,27.70
2023-01-23T10:45:49.708Z,27.03
2023-01-23T10:48:32.456Z,24.77
2023-01-23T10:51:00.891Z,25.30
2023-01-23T10:53:28.626Z,36.33
2023-01-23T10:56:00.805Z,27.53
2023-01-23T10:58:39.569Z,22.73
2023-01-23T11:01:25.306Z,22.37
2023-01-23T11:03:53.354Z,20.10
2023-01-23T11:06:25.926Z,18.60
2023-01-23T11:09:04.038Z,17.30
2023-01-23T11:11:34.528Z,17.83
2023-01-23T11:14:21.692Z,17.57
2023-01-23T11:17:34.886Z,19.03
2023-01-23T11:20:25.169Z,15.13
2023-01-23T11:23:16.315Z,18.50
2023-01-23T11:25:48.693Z,15.00
2023-01-23T11:28:50.980Z,22.90
2023-01-23T11:31:23.918Z,36.53
2023-01-23T11:34:11.500Z,22.60
2023-01-23T11:37:10.195Z,17.47
2023-01-23T11:39:43.086Z,15.53
2023-01-23T11:42:13.669Z,15.57
2023-01-23T11:44:46.367Z,12.57
2023-01-23T11:47:48.023Z,15.80
2023-01-23T11:51:06.300Z,15.90
2023-01-23T11:53:59.921Z,20.57
2023-01-23T11:56:59.523Z,20.63
2023-01-23T11:59:40.567Z,29.33
2023-01-23T12:02:59.905Z,24.47
2023-01-23T12:06:18.791Z,33.57
2023-01-23T12:09:11.184Z,26.77
2023-01-23T12:12:08.548Z,22.67
2023-01-23T12:15:13.221Z,36.13
2023-01-23T12:18:12.885Z,32.33
2023-01-23T12:20:52.641Z,23.50
2023-01-23T12:23:52.593Z,22.97
2023-01-23T12:26:22.678Z,18.87
2023-01-23T12:29:44.674Z,20.47
2023-01-23T12:32:21.170Z,17.77
2023-01-23T12:35:19.724Z,18.70
2023-01-23T12:38:11.697Z,19.37
2023-01-23T12:41:09.558Z,19.30
2023-01-23T12:43:54.994Z,22.10
2023-01-23T12:46:34.052Z,16.93
2023-01-23T12:49:44.936Z,15.37
2023-01-23T12:52:51.897Z,19.80
2023-01-23T12:55:23.734Z,15.07
2023-01-23T12:58:08.172Z,16.03
2023-01-23T13:01:20.431Z,17.67
2023-01-23T13:03:56.948Z,15.30
2023-01-23T13:06:27.102Z,15.30
2023-01-23T13:09:17.007Z,16.50
2023-01-23T13:12:22.592Z,14.83
2023-01-23T13:15:14.855Z,19.40
2023-01-23T13:17:57.831Z,21.47
2023-01-23T13:20:48.317Z,18.80
2023-01-23T13:23:32.732Z,16.07
2023-01-23T13:26:15.107Z,18.83
2023-01-23T13:28:56.134Z,15.33
2023-01-23T13:31:42.519Z,15.80
2023-01-23T13:34:16.540Z,16.33
2023-01-23T13:39:29.739Z,18.53
2023-01-23T13:42:13.678Z,17.63
2023-01-23T13:45:16.812Z,17.73
2023-01-23T14:20:40.218Z,18.83
2023-01-23T14:23:30.993Z,14.77
2023-01-23T14:25:58.849Z,14.37
2023-01-23T14:28:27.758Z,12.33
2023-01-23T14:31:07.880Z,13.90
2023-01-23T14:33:49.622Z,18.10
2023-01-23T14:36:19.741Z,17.40
2023-01-23T14:38:50.086Z,18.83
2023-01-23T14:41:20.834Z,14.33
2023-01-23T14:43:53.083Z,16.43
2023-01-23T14:46:33.889Z,16.73
2023-01-23T14:49:05.094Z,17.47
2023-01-23T14:51:32.934Z,15.53
2023-01-23T14:54:10.248Z,14.93
2023-01-23T14:56:40.019Z,17.20
2023-01-23T14:59:35.112Z,16.23
2023-01-23T15:02:33.807Z,14.00
2023-01-23T15:05:16.504Z,16.17
2023-01-23T15:07:56.978Z,18.57
2023-01-23T15:10:48.311Z,19.33
2023-01-23T15:13:36.938Z,49.70
2023-01-23T15:16:12.440Z,28.73
2023-01-23T15:18:55.645Z,23.70
2023-01-23T15:21:30.322Z,20.10
2023-01-23T15:24:06.502Z,24.70
2023-01-23T15:26:37.415Z,36.37
2023-01-23T15:29:10.910Z,30.27
2023-01-23T15:31:39.163Z,18.80
2023-01-23T15:34:16.392Z,16.70
2023-01-23T15:37:00.339Z,19.63
2023-01-23T15:39:38.273Z,16.17
2023-01-23T15:42:28.426Z,19.17
2023-01-23T15:45:00.965Z,16.37
2023-01-23T15:47:32.393Z,19.87
2023-01-23T15:50:01.719Z,19.57
2023-01-23T15:52:46.106Z,20.63
2023-01-23T15:57:43.241Z,24.27
2023-01-23T16:00:27.053Z,19.20
2023-01-23T16:02:57.888Z,18.88
2023-01-23T16:05:30.013Z,17.07
2023-01-23T16:08:01.163Z,18.17
2023-01-23T16:10:35.647Z,20.80
2023-01-23T16:13:03.734Z,19.90
2023-01-23T16:15:34.466Z,17.20
2023-01-23T16:18:04.538Z,18.07
2023-01-23T16:20:41.307Z,22.57
2023-01-23T16:23:24.934Z,19.50
2023-01-23T16:25:53.334Z,20.98
2023-01-23T16:28:26.066Z,16.43
2023-01-23T16:30:53.912Z,17.73
2023-01-23T16:33:22.116Z,17.23
2023-01-23T16:35:53.204Z,17.40
2023-01-23T16:38:29.322Z,17.33
2023-01-23T16:41:00.048Z,16.27
2023-01-23T16:43:28.240Z,19.57
2023-01-23T16:45:57.659Z,22.13
2023-01-23T16:48:28.044Z,32.47
2023-01-23T16:51:23.572Z,19.27
2023-01-23T16:54:02.305Z,20.53
2023-01-23T16:56:39.055Z,16.60
2023-01-23T16:59:19.145Z,19.57
2023-01-23T17:01:50.861Z,21.40
2023-01-23T17:04:21.311Z,21.57
2023-01-23T17:06:49.869Z,18.70
2023-01-23T17:09:17.744Z,16.87
2023-01-23T17:12:05.466Z,16.73
2023-01-23T17:14:34.520Z,16.80
2023-01-23T17:17:14.355Z,20.10
2023-01-23T17:19:43.657Z,20.27
2023-01-23T17:22:27.803Z,17.43
2023-01-23T17:24:55.760Z,13.57
2023-01-23T17:27:23.603Z,18.47
2023-01-23T17:29:51.446Z,18.20
2023-01-23T17:32:32.992Z,21.63
2023-01-23T17:35:03.456Z,19.97
2023-01-23T17:37:31.297Z,18.17
2023-01-23T17:39:59.134Z,19.00
2023-01-23T17:42:27.472Z,22.77
2023-01-23T17:44:55.539Z,18.17
2023-01-23T17:47:23.272Z,16.47
2023-01-23T17:49:54.829Z,18.20
2023-01-23T17:52:24.904Z,21.73
2023-01-23T17:54:54.457Z,18.20
2023-01-23T17:57:22.791Z,19.67
2023-01-23T17:59:50.636Z,18.13
2023-01-23T18:02:28.323Z,17.77
2023-01-23T18:04:56.416Z,18.90
2023-01-23T18:07:24.375Z,20.20
2023-01-23T18:09:54.011Z,18.10
2023-01-23T18:12:53.537Z,18.53
2023-01-23T18:16:02.287Z,16.83
2023-01-23T18:18:37.232Z,19.40
2023-01-23T18:21:13.332Z,15.20
2023-01-23T18:23:41.563Z,14.30
2023-01-23T18:26:33.020Z,14.67
2023-01-23T18:29:09.501Z,17.30
2023-01-23T18:32:04.650Z,18.53
2023-01-23T18:34:53.309Z,17.53
2023-01-23T18:37:32.803Z,17.97
2023-01-23T18:40:55.712Z,20.27
2023-01-23T18:43:44.458Z,18.17
2023-01-23T18:46:27.799Z,14.97
2023-01-23T18:48:55.864Z,15.03
2023-01-23T18:51:49.730Z,16.27
2023-01-23T18:54:59.711Z,18.00
2023-01-23T18:57:52.847Z,18.87
2023-01-23T19:00:40.407Z,21.20
2023-01-23T19:03:16.516Z,16.50
2023-01-23T19:05:45.897Z,13.33
2023-01-23T19:08:32.461Z,14.87
2023-01-23T19:11:24.424Z,14.33
2023-01-23T19:14:38.232Z,17.67
2023-01-23T19:17:29.705Z,17.60
2023-01-23T19:20:28.155Z,15.77
2023-01-23T19:23:21.671Z,12.33
2023-01-23T19:25:49.633Z,10.97
2023-01-23T19:28:17.605Z,13.53
2023-01-23T19:30:46.001Z,14.03
2023-01-23T19:33:20.723Z,12.90
2023-01-23T19:35:49.287Z,17.90
2023-01-23T19:38:17.018Z,13.63
2023-01-23T19:40:45.812Z,12.57
2023-01-23T19:43:16.848Z,14.03
2023-01-23T19:45:45.481Z,13.50
2023-01-23T19:48:14.527Z,14.87
2023-01-23T19:50:42.338Z,17.00
2023-01-23T19:53:14.146Z,14.90
2023-01-23T19:55:42.000Z,14.07
2023-01-23T19:58:09.706Z,14.50
2023-01-23T20:00:37.562Z,13.60
2023-01-23T20:03:05.417Z,14.37
2023-01-23T20:05:33.232Z,16.07
2023-01-23T20:08:01.119Z,17.33
2023-01-23T20:10:29.046Z,15.00
2023-01-23T20:12:56.851Z,14.03
2023-01-23T20:15:27.487Z,14.00
2023-01-23T20:17:55.454Z,13.73
2023-01-23T20:20:23.640Z,15.73
2023-01-23T20:22:51.731Z,13.80
2023-01-23T20:25:19.964Z,14.77
2023-01-23T20:27:47.896Z,15.10
2023-01-23T20:30:20.293Z,16.37
2023-01-23T20:32:48.141Z,16.10
2023-01-23T20:35:16.117Z,14.60
2023-01-23T20:37:43.943Z,18.27
2023-01-23T20:40:12.027Z,17.20
2023-01-23T20:42:41.926Z,14.03
2023-01-23T20:45:10.121Z,14.50
2023-01-23T20:47:38.720Z,13.87
2023-01-23T20:50:06.874Z,16.63
2023-01-23T20:52:53.215Z,14.83
2023-01-23T20:55:21.350Z,15.03
2023-01-23T20:58:07.974Z,16.10
2023-01-23T21:00:35.811Z,17.00
2023-01-23T21:03:03.697Z,18.07
2023-01-23T21:05:31.507Z,15.90
2023-01-23T21:07:59.332Z,15.37
2023-01-23T21:10:27.293Z,15.77
2023-01-23T21:12:55.137Z,16.13
2023-01-23T21:15:23.328Z,19.67
2023-01-23T21:17:51.306Z,18.33
2023-01-23T21:20:19.029Z,20.37
2023-01-23T21:22:46.752Z,17.57
2023-01-23T21:25:14.592Z,18.53
2023-01-23T21:27:42.325Z,15.50
2023-01-23T21:30:10.994Z,20.80
2023-01-23T21:32:38.718Z,18.47
2023-01-23T21:35:06.802Z,16.50
2023-01-23T21:37:34.642Z,19.63
2023-01-23T21:40:02.488Z,16.23
2023-01-23T21:42:30.333Z,16.27
2023-01-23T21:44:58.089Z,17.93
2023-01-23T21:47:25.775Z,14.77
2023-01-23T21:49:53.496Z,17.23
2023-01-23T21:52:21.348Z,16.70
2023-01-23T21:54:49.179Z,16.43
2023-01-23T21:57:16.899Z,18.80
2023-01-23T22:00:04.543Z,19.63
2023-01-23T22:02:39.735Z,20.97
2023-01-23T22:05:08.192Z,16.17
2023-01-23T22:07:35.989Z,16.90
2023-01-23T22:10:04.560Z,16.63
2023-01-23T22:12:32.281Z,19.17
2023-01-23T22:15:00.140Z,20.83
2023-01-23T22:17:27.958Z,19.10
2023-01-23T22:19:55.804Z,16.77
2023-01-23T22:22:23.528Z,21.33
2023-01-23T22:24:51.365Z,19.03
2023-01-23T22:27:19.119Z,20.10
2023-01-23T22:29:46.812Z,17.20
2023-01-23T22:32:14.682Z,19.93
2023-01-23T22:34:42.508Z,16.60
2023-01-23T22:37:10.222Z,18.37
2023-01-23T22:39:38.223Z,19.90
2023-01-23T22:42:06.027Z,22.07
2023-01-23T22:44:33.871Z,18.17
2023-01-23T22:47:01.692Z,17.60
2023-01-23T22:49:29.434Z,18.80
2023-01-23T22:51:57.273Z,19.80
2023-01-23T22:54:25.238Z,18.33
2023-01-23T22:56:52.965Z,21.33
2023-01-23T22:59:20.797Z,18.87
2023-01-23T23:01:48.523Z,20.60
2023-01-23T23:04:16.368Z,17.90
2023-01-23T23:06:44.111Z,17.97
2023-01-23T23:09:11.930Z,20.90
2023-01-23T23:11:40.014Z,18.93
2023-01-23T23:14:09.536Z,19.77
2023-01-23T23:16:37.255Z,18.57
2023-01-23T23:19:05.344Z,22.73
2023-01-23T23:21:36.186Z,22.37
2023-01-23T23:24:07.805Z,21.07
2023-01-23T23:26:35.957Z,19.67
2023-01-23T23:29:04.886Z,19.00
2023-01-23T23:31:33.482Z,20.37
2023-01-23T23:34:01.994Z,18.07
2023-01-23T23:36:29.849Z,18.17
2023-01-23T23:38:57.684Z,23.10
2023-01-23T23:41:25.883Z,21.07
2023-01-23T23:43:53.599Z,21.47
2023-01-23T23:46:21.449Z,21.80
2023-01-23T23:48:49.172Z,19.50
2023-01-23T23:51:19.070Z,20.50
2023-01-23T23:53:48.584Z,18.77
2023-01-23T23:56:23.011Z,20.57
2023-01-23T23:58:51.097Z,23.37
